sensor_id;sensor_type;location;lat;lon;timestamp;P1;durP1;ratioP1;P2;durP2;ratioP2
71790;SDS011;59638;52.126;5.434;2023-05-10T00:00:23;33.35;;;11.63;;
71790;SDS011;59638;52.126;5.434;2023-05-10T00:02:49;27.73;;;9.33;;
71790;SDS011;59638;52.126;5.434;2023-05-10T00:05:16;29.75;;;11.55;;
71790;SDS011;59638;52.126;5.434;2023-05-10T00:07:42;33.60;;;12.65;;
71790;SDS011;59638;52.126;5.434;2023-05-10T00:10:12;32.55;;;11.85;;
71790;SDS011;59638;52.126;5.434;2023-05-10T00:12:39;24.70;;;10.35;;
71790;SDS011;59638;52.126;5.434;2023-05-10T00:15:05;22.07;;;9.80;;
71790;SDS011;59638;52.126;5.434;2023-05-10T00:17:32;26.00;;;10.05;;
71790;SDS011;59638;52.126;5.434;2023-05-10T00:19:59;41.05;;;10.95;;
71790;SDS011;59638;52.126;5.434;2023-05-10T00:22:26;43.55;;;12.82;;
71790;SDS011;59638;52.126;5.434;2023-05-10T00:24:53;35.55;;;12.23;;
71790;SDS011;59638;52.126;5.434;2023-05-10T00:27:19;45.60;;;12.63;;
71790;SDS011;59638;52.126;5.434;2023-05-10T00:29:45;42.10;;;14.60;;
71790;SDS011;59638;52.126;5.434;2023-05-10T00:32:12;50.63;;;15.80;;
71790;SDS011;59638;52.126;5.434;2023-05-10T00:34:40;38.83;;;15.13;;
71790;SDS011;59638;52.126;5.434;2023-05-10T00:37:06;40.83;;;15.02;;
71790;SDS011;59638;52.126;5.434;2023-05-10T00:39:33;43.17;;;15.07;;
71790;SDS011;59638;52.126;5.434;2023-05-10T00:41:59;48.08;;;16.25;;
71790;SDS011;59638;52.126;5.434;2023-05-10T00:44:26;53.40;;;16.80;;
71790;SDS011;59638;52.126;5.434;2023-05-10T00:46:52;56.28;;;18.73;;
71790;SDS011;59638;52.126;5.434;2023-05-10T00:49:19;63.55;;;17.50;;
71790;SDS011;59638;52.126;5.434;2023-05-10T00:51:46;54.73;;;18.60;;
71790;SDS011;59638;52.126;5.434;2023-05-10T00:54:13;56.67;;;19.15;;
71790;SDS011;59638;52.126;5.434;2023-05-10T00:56:41;61.25;;;18.48;;
71790;SDS011;59638;52.126;5.434;2023-05-10T00:59:08;65.65;;;17.98;;
71790;SDS011;59638;52.126;5.434;2023-05-10T01:01:35;76.80;;;20.70;;
71790;SDS011;59638;52.126;5.434;2023-05-10T01:04:02;68.87;;;18.97;;
71790;SDS011;59638;52.126;5.434;2023-05-10T01:06:29;67.75;;;20.45;;
71790;SDS011;59638;52.126;5.434;2023-05-10T01:08:55;61.17;;;19.17;;
71790;SDS011;59638;52.126;5.434;2023-05-10T01:11:22;76.53;;;20.67;;
71790;SDS011;59638;52.126;5.434;2023-05-10T01:13:52;77.72;;;22.08;;
71790;SDS011;59638;52.126;5.434;2023-05-10T01:16:22;72.37;;;20.17;;
71790;SDS011;59638;52.126;5.434;2023-05-10T01:18:50;94.93;;;22.33;;
71790;SDS011;59638;52.126;5.434;2023-05-10T01:27:17;80.65;;;21.85;;
71790;SDS011;59638;52.126;5.434;2023-05-10T01:38:43;90.95;;;22.45;;
71790;SDS011;59638;52.126;5.434;2023-05-10T01:43:57;78.60;;;20.23;;
71790;SDS011;59638;52.126;5.434;2023-05-10T01:46:33;75.93;;;18.52;;
71790;SDS011;59638;52.126;5.434;2023-05-10T01:49:03;84.13;;;20.60;;
71790;SDS011;59638;52.126;5.434;2023-05-10T01:51:41;75.70;;;20.02;;
71790;SDS011;59638;52.126;5.434;2023-05-10T01:54:13;79.35;;;20.70;;
71790;SDS011;59638;52.126;5.434;2023-05-10T01:56:43;80.73;;;20.90;;
71790;SDS011;59638;52.126;5.434;2023-05-10T01:59:14;80.13;;;21.08;;
71790;SDS011;59638;52.126;5.434;2023-05-10T02:01:44;77.05;;;21.00;;
71790;SDS011;59638;52.126;5.434;2023-05-10T02:04:13;81.70;;;20.80;;
71790;SDS011;59638;52.126;5.434;2023-05-10T02:06:43;99.60;;;22.20;;
71790;SDS011;59638;52.126;5.434;2023-05-10T02:09:11;75.33;;;21.87;;
71790;SDS011;59638;52.126;5.434;2023-05-10T02:11:41;77.03;;;21.55;;
71790;SDS011;59638;52.126;5.434;2023-05-10T02:14:09;83.30;;;21.38;;
71790;SDS011;59638;52.126;5.434;2023-05-10T02:16:37;74.97;;;19.65;;
71790;SDS011;59638;52.126;5.434;2023-05-10T02:19:06;74.20;;;19.50;;
71790;SDS011;59638;52.126;5.434;2023-05-10T02:21:35;74.93;;;20.57;;
71790;SDS011;59638;52.126;5.434;2023-05-10T02:24:03;72.93;;;22.17;;
71790;SDS011;59638;52.126;5.434;2023-05-10T02:26:31;81.43;;;21.08;;
71790;SDS011;59638;52.126;5.434;2023-05-10T02:29:01;77.95;;;22.30;;
71790;SDS011;59638;52.126;5.434;2023-05-10T02:31:30;64.82;;;18.45;;
71790;SDS011;59638;52.126;5.434;2023-05-10T02:33:59;83.83;;;21.63;;
71790;SDS011;59638;52.126;5.434;2023-05-10T02:36:26;78.90;;;21.10;;
71790;SDS011;59638;52.126;5.434;2023-05-10T02:38:53;80.07;;;20.48;;
71790;SDS011;59638;52.126;5.434;2023-05-10T02:41:21;83.93;;;20.98;;
71790;SDS011;59638;52.126;5.434;2023-05-10T02:43:50;78.65;;;20.42;;
71790;SDS011;59638;52.126;5.434;2023-05-10T02:46:20;71.37;;;18.20;;
71790;SDS011;59638;52.126;5.434;2023-05-10T02:48:47;69.28;;;19.60;;
71790;SDS011;59638;52.126;5.434;2023-05-10T02:51:14;72.25;;;20.90;;
71790;SDS011;59638;52.126;5.434;2023-05-10T02:53:43;85.75;;;21.50;;
71790;SDS011;59638;52.126;5.434;2023-05-10T02:56:14;90.70;;;22.45;;
71790;SDS011;59638;52.126;5.434;2023-05-10T02:58:46;70.07;;;18.40;;
71790;SDS011;59638;52.126;5.434;2023-05-10T03:01:12;83.13;;;22.45;;
71790;SDS011;59638;52.126;5.434;2023-05-10T03:03:39;103.15;;;23.80;;
71790;SDS011;59638;52.126;5.434;2023-05-10T03:06:06;69.45;;;19.70;;
71790;SDS011;59638;52.126;5.434;2023-05-10T03:08:32;100.10;;;23.80;;
71790;SDS011;59638;52.126;5.434;2023-05-10T03:16:27;119.88;;;23.88;;
71790;SDS011;59638;52.126;5.434;2023-05-10T03:19:11;158.60;;;28.20;;
71790;SDS011;59638;52.126;5.434;2023-05-10T03:21:44;135.60;;;25.60;;
71790;SDS011;59638;52.126;5.434;2023-05-10T03:24:15;137.43;;;25.70;;
71790;SDS011;59638;52.126;5.434;2023-05-10T03:26:44;126.40;;;23.83;;
71790;SDS011;59638;52.126;5.434;2023-05-10T03:29:12;152.85;;;24.52;;
71790;SDS011;59638;52.126;5.434;2023-05-10T03:31:40;130.88;;;24.02;;
71790;SDS011;59638;52.126;5.434;2023-05-10T03:34:06;159.63;;;25.40;;
71790;SDS011;59638;52.126;5.434;2023-05-10T03:36:33;117.03;;;21.73;;
71790;SDS011;59638;52.126;5.434;2023-05-10T03:38:59;160.98;;;25.15;;
71790;SDS011;59638;52.126;5.434;2023-05-10T03:41:26;149.02;;;25.08;;
71790;SDS011;59638;52.126;5.434;2023-05-10T03:43:52;137.90;;;23.80;;
71790;SDS011;59638;52.126;5.434;2023-05-10T03:46:18;147.02;;;24.33;;
71790;SDS011;59638;52.126;5.434;2023-05-10T03:48:45;155.20;;;25.10;;
71790;SDS011;59638;52.126;5.434;2023-05-10T03:51:11;138.95;;;25.27;;
71790;SDS011;59638;52.126;5.434;2023-05-10T03:53:37;143.55;;;25.27;;
71790;SDS011;59638;52.126;5.434;2023-05-10T03:56:04;145.15;;;25.40;;
71790;SDS011;59638;52.126;5.434;2023-05-10T03:58:30;136.45;;;25.95;;
71790;SDS011;59638;52.126;5.434;2023-05-10T04:00:57;122.47;;;23.83;;
71790;SDS011;59638;52.126;5.434;2023-05-10T04:03:23;136.48;;;26.75;;
71790;SDS011;59638;52.126;5.434;2023-05-10T04:05:58;121.13;;;25.08;;
71790;SDS011;59638;52.126;5.434;2023-05-10T04:08:28;113.68;;;25.23;;
71790;SDS011;59638;52.126;5.434;2023-05-10T04:11:04;100.03;;;21.40;;
71790;SDS011;59638;52.126;5.434;2023-05-10T04:13:31;121.20;;;23.63;;
71790;SDS011;59638;52.126;5.434;2023-05-10T04:15:58;118.93;;;23.92;;
71790;SDS011;59638;52.126;5.434;2023-05-10T04:18:24;117.70;;;24.83;;
71790;SDS011;59638;52.126;5.434;2023-05-10T04:20:51;117.18;;;23.20;;
71790;SDS011;59638;52.126;5.434;2023-05-10T04:23:17;112.57;;;23.50;;
71790;SDS011;59638;52.126;5.434;2023-05-10T04:25:43;89.70;;;20.23;;
71790;SDS011;59638;52.126;5.434;2023-05-10T04:28:10;124.70;;;22.83;;
71790;SDS011;59638;52.126;5.434;2023-05-10T04:30:36;102.95;;;20.92;;
71790;SDS011;59638;52.126;5.434;2023-05-10T04:33:03;119.72;;;22.92;;
71790;SDS011;59638;52.126;5.434;2023-05-10T04:35:29;131.82;;;21.98;;
71790;SDS011;59638;52.126;5.434;2023-05-10T04:37:56;108.50;;;21.47;;
71790;SDS011;59638;52.126;5.434;2023-05-10T04:40:22;110.25;;;22.33;;
71790;SDS011;59638;52.126;5.434;2023-05-10T04:42:49;111.25;;;22.05;;
71790;SDS011;59638;52.126;5.434;2023-05-10T04:45:15;127.00;;;22.52;;
71790;SDS011;59638;52.126;5.434;2023-05-10T04:47:41;112.53;;;22.30;;
71790;SDS011;59638;52.126;5.434;2023-05-10T04:50:08;101.43;;;20.27;;
71790;SDS011;59638;52.126;5.434;2023-05-10T04:52:34;113.80;;;22.70;;
71790;SDS011;59638;52.126;5.434;2023-05-10T04:55:01;74.28;;;17.90;;
71790;SDS011;59638;52.126;5.434;2023-05-10T04:57:28;112.88;;;21.63;;
71790;SDS011;59638;52.126;5.434;2023-05-10T04:59:54;107.95;;;23.02;;
71790;SDS011;59638;52.126;5.434;2023-05-10T05:02:21;100.40;;;20.27;;
71790;SDS011;59638;52.126;5.434;2023-05-10T05:04:47;118.25;;;24.00;;
71790;SDS011;59638;52.126;5.434;2023-05-10T05:07:14;115.72;;;23.60;;
71790;SDS011;59638;52.126;5.434;2023-05-10T05:09:40;99.75;;;20.90;;
71790;SDS011;59638;52.126;5.434;2023-05-10T05:12:07;144.90;;;24.70;;
71790;SDS011;59638;52.126;5.434;2023-05-10T05:14:33;94.83;;;20.57;;
71790;SDS011;59638;52.126;5.434;2023-05-10T05:16:59;110.85;;;21.45;;
71790;SDS011;59638;52.126;5.434;2023-05-10T05:19:26;115.05;;;23.65;;
71790;SDS011;59638;52.126;5.434;2023-05-10T05:21:54;121.22;;;23.27;;
71790;SDS011;59638;52.126;5.434;2023-05-10T05:24:20;109.35;;;23.88;;
71790;SDS011;59638;52.126;5.434;2023-05-10T05:26:47;102.60;;;22.07;;
71790;SDS011;59638;52.126;5.434;2023-05-10T05:29:13;99.55;;;21.05;;
71790;SDS011;59638;52.126;5.434;2023-05-10T05:31:39;102.32;;;22.88;;
71790;SDS011;59638;52.126;5.434;2023-05-10T05:34:06;101.10;;;22.73;;
71790;SDS011;59638;52.126;5.434;2023-05-10T05:36:35;104.20;;;23.02;;
71790;SDS011;59638;52.126;5.434;2023-05-10T05:39:04;104.10;;;23.00;;
71790;SDS011;59638;52.126;5.434;2023-05-10T05:41:30;116.38;;;25.77;;
71790;SDS011;59638;52.126;5.434;2023-05-10T05:43:57;113.72;;;25.13;;
71790;SDS011;59638;52.126;5.434;2023-05-10T05:46:24;110.13;;;24.80;;
71790;SDS011;59638;52.126;5.434;2023-05-10T05:48:50;107.88;;;25.17;;
71790;SDS011;59638;52.126;5.434;2023-05-10T05:51:17;97.10;;;24.00;;
71790;SDS011;59638;52.126;5.434;2023-05-10T05:53:43;93.28;;;23.52;;
71790;SDS011;59638;52.126;5.434;2023-05-10T05:56:09;95.90;;;24.10;;
71790;SDS011;59638;52.126;5.434;2023-05-10T05:58:36;98.32;;;23.92;;
71790;SDS011;59638;52.126;5.434;2023-05-10T06:01:02;81.35;;;21.67;;
71790;SDS011;59638;52.126;5.434;2023-05-10T06:03:29;92.00;;;22.97;;
71790;SDS011;59638;52.126;5.434;2023-05-10T06:05:55;106.40;;;24.50;;
71790;SDS011;59638;52.126;5.434;2023-05-10T06:08:21;85.07;;;22.65;;
71790;SDS011;59638;52.126;5.434;2023-05-10T06:10:48;73.50;;;20.00;;
71790;SDS011;59638;52.126;5.434;2023-05-10T06:13:14;66.85;;;19.75;;
71790;SDS011;59638;52.126;5.434;2023-05-10T06:15:41;81.03;;;20.20;;
71790;SDS011;59638;52.126;5.434;2023-05-10T06:18:08;71.78;;;18.08;;
71790;SDS011;59638;52.126;5.434;2023-05-10T06:20:34;92.00;;;22.17;;
71790;SDS011;59638;52.126;5.434;2023-05-10T06:23:01;66.35;;;20.73;;
71790;SDS011;59638;52.126;5.434;2023-05-10T06:25:27;83.95;;;21.65;;
71790;SDS011;59638;52.126;5.434;2023-05-10T06:27:53;69.47;;;19.90;;
71790;SDS011;59638;52.126;5.434;2023-05-10T06:30:24;67.07;;;19.67;;
71790;SDS011;59638;52.126;5.434;2023-05-10T06:32:54;74.75;;;20.25;;
71790;SDS011;59638;52.126;5.434;2023-05-10T06:35:21;63.38;;;19.52;;
71790;SDS011;59638;52.126;5.434;2023-05-10T06:37:48;71.65;;;20.30;;
71790;SDS011;59638;52.126;5.434;2023-05-10T06:40:15;70.73;;;19.97;;
71790;SDS011;59638;52.126;5.434;2023-05-10T06:42:41;63.50;;;18.45;;
71790;SDS011;59638;52.126;5.434;2023-05-10T06:45:08;65.88;;;18.50;;
71790;SDS011;59638;52.126;5.434;2023-05-10T06:47:35;55.15;;;15.70;;
71790;SDS011;59638;52.126;5.434;2023-05-10T06:50:04;56.97;;;17.70;;
71790;SDS011;59638;52.126;5.434;2023-05-10T06:52:31;51.07;;;15.63;;
71790;SDS011;59638;52.126;5.434;2023-05-10T06:54:57;48.35;;;14.27;;
71790;SDS011;59638;52.126;5.434;2023-05-10T06:57:24;45.60;;;15.07;;
71790;SDS011;59638;52.126;5.434;2023-05-10T06:59:55;50.15;;;14.65;;
71790;SDS011;59638;52.126;5.434;2023-05-10T07:02:22;31.70;;;12.85;;
71790;SDS011;59638;52.126;5.434;2023-05-10T07:04:49;37.13;;;12.83;;
71790;SDS011;59638;52.126;5.434;2023-05-10T07:07:16;29.52;;;10.93;;
71790;SDS011;59638;52.126;5.434;2023-05-10T07:09:42;30.77;;;11.52;;
71790;SDS011;59638;52.126;5.434;2023-05-10T07:12:08;26.85;;;10.35;;
71790;SDS011;59638;52.126;5.434;2023-05-10T07:14:39;23.13;;;9.70;;
71790;SDS011;59638;52.126;5.434;2023-05-10T07:17:06;24.73;;;9.87;;
71790;SDS011;59638;52.126;5.434;2023-05-10T07:19:32;31.52;;;9.57;;
71790;SDS011;59638;52.126;5.434;2023-05-10T07:21:58;21.02;;;8.48;;
71790;SDS011;59638;52.126;5.434;2023-05-10T07:24:25;23.85;;;8.70;;
71790;SDS011;59638;52.126;5.434;2023-05-10T07:26:51;23.15;;;8.70;;
71790;SDS011;59638;52.126;5.434;2023-05-10T07:29:18;21.13;;;8.10;;
71790;SDS011;59638;52.126;5.434;2023-05-10T07:31:44;17.85;;;7.07;;
71790;SDS011;59638;52.126;5.434;2023-05-10T07:34:10;16.58;;;8.18;;
71790;SDS011;59638;52.126;5.434;2023-05-10T07:36:37;14.10;;;6.22;;
71790;SDS011;59638;52.126;5.434;2023-05-10T07:39:03;14.23;;;7.45;;
71790;SDS011;59638;52.126;5.434;2023-05-10T07:41:30;15.43;;;7.13;;
71790;SDS011;59638;52.126;5.434;2023-05-10T07:43:56;19.65;;;7.70;;
71790;SDS011;59638;52.126;5.434;2023-05-10T07:46:22;13.43;;;6.78;;
71790;SDS011;59638;52.126;5.434;2023-05-10T07:48:49;16.80;;;8.23;;
71790;SDS011;59638;52.126;5.434;2023-05-10T07:51:15;14.50;;;8.52;;
71790;SDS011;59638;52.126;5.434;2023-05-10T07:53:42;16.27;;;8.00;;
71790;SDS011;59638;52.126;5.434;2023-05-10T07:58:53;16.80;;;7.32;;
71790;SDS011;59638;52.126;5.434;2023-05-10T08:01:20;16.52;;;7.38;;
71790;SDS011;59638;52.126;5.434;2023-05-10T08:03:47;13.15;;;6.60;;
71790;SDS011;59638;52.126;5.434;2023-05-10T08:06:14;13.67;;;6.60;;
71790;SDS011;59638;52.126;5.434;2023-05-10T08:08:43;10.43;;;6.53;;
71790;SDS011;59638;52.126;5.434;2023-05-10T08:11:11;13.90;;;7.10;;
71790;SDS011;59638;52.126;5.434;2023-05-10T08:13:38;9.95;;;5.97;;
71790;SDS011;59638;52.126;5.434;2023-05-10T08:16:04;12.88;;;6.63;;
71790;SDS011;59638;52.126;5.434;2023-05-10T08:18:31;10.30;;;5.73;;
71790;SDS011;59638;52.126;5.434;2023-05-10T08:20:57;14.32;;;5.88;;
71790;SDS011;59638;52.126;5.434;2023-05-10T08:23:24;12.07;;;5.20;;
71790;SDS011;59638;52.126;5.434;2023-05-10T08:25:50;11.38;;;7.03;;
71790;SDS011;59638;52.126;5.434;2023-05-10T08:28:17;14.00;;;7.05;;
71790;SDS011;59638;52.126;5.434;2023-05-10T08:30:43;10.47;;;7.00;;
71790;SDS011;59638;52.126;5.434;2023-05-10T08:33:09;12.27;;;7.97;;
71790;SDS011;59638;52.126;5.434;2023-05-10T08:35:36;16.98;;;8.20;;
71790;SDS011;59638;52.126;5.434;2023-05-10T08:38:02;14.23;;;7.82;;
71790;SDS011;59638;52.126;5.434;2023-05-10T08:40:29;19.88;;;9.88;;
71790;SDS011;59638;52.126;5.434;2023-05-10T08:42:58;15.53;;;7.63;;
71790;SDS011;59638;52.126;5.434;2023-05-10T08:45:39;14.55;;;7.63;;
71790;SDS011;59638;52.126;5.434;2023-05-10T08:48:11;16.40;;;8.15;;
71790;SDS011;59638;52.126;5.434;2023-05-10T08:50:38;12.73;;;7.50;;
71790;SDS011;59638;52.126;5.434;2023-05-10T08:53:10;12.95;;;7.78;;
71790;SDS011;59638;52.126;5.434;2023-05-10T08:55:39;14.67;;;7.10;;
71790;SDS011;59638;52.126;5.434;2023-05-10T08:58:08;12.57;;;8.23;;
71790;SDS011;59638;52.126;5.434;2023-05-10T09:00:35;12.52;;;7.25;;
71790;SDS011;59638;52.126;5.434;2023-05-10T09:03:03;16.73;;;7.82;;
71790;SDS011;59638;52.126;5.434;2023-05-10T09:05:30;12.68;;;8.23;;
71790;SDS011;59638;52.126;5.434;2023-05-10T09:07:57;10.13;;;7.33;;
71790;SDS011;59638;52.126;5.434;2023-05-10T09:10:26;12.23;;;7.10;;
71790;SDS011;59638;52.126;5.434;2023-05-10T09:12:54;12.23;;;7.00;;
71790;SDS011;59638;52.126;5.434;2023-05-10T09:15:24;11.18;;;8.20;;
71790;SDS011;59638;52.126;5.434;2023-05-10T09:17:51;8.88;;;6.82;;
71790;SDS011;59638;52.126;5.434;2023-05-10T09:20:17;11.20;;;6.20;;
71790;SDS011;59638;52.126;5.434;2023-05-10T09:22:45;9.98;;;6.05;;
71790;SDS011;59638;52.126;5.434;2023-05-10T09:25:12;9.23;;;6.18;;
71790;SDS011;59638;52.126;5.434;2023-05-10T09:27:41;7.75;;;4.72;;
71790;SDS011;59638;52.126;5.434;2023-05-10T09:30:23;4.75;;;3.88;;
71790;SDS011;59638;52.126;5.434;2023-05-10T09:32:53;5.67;;;4.07;;
71790;SDS011;59638;52.126;5.434;2023-05-10T09:35:21;6.38;;;4.18;;
71790;SDS011;59638;52.126;5.434;2023-05-10T09:37:53;5.25;;;3.45;;
71790;SDS011;59638;52.126;5.434;2023-05-10T09:40:21;3.85;;;3.05;;
71790;SDS011;59638;52.126;5.434;2023-05-10T09:42:53;5.10;;;2.78;;
71790;SDS011;59638;52.126;5.434;2023-05-10T09:45:22;3.50;;;2.10;;
71790;SDS011;59638;52.126;5.434;2023-05-10T09:47:50;3.40;;;2.17;;
71790;SDS011;59638;52.126;5.434;2023-05-10T09:50:16;4.63;;;2.38;;
71790;SDS011;59638;52.126;5.434;2023-05-10T09:55:20;5.22;;;2.05;;
71790;SDS011;59638;52.126;5.434;2023-05-10T09:57:49;5.13;;;3.50;;
71790;SDS011;59638;52.126;5.434;2023-05-10T10:00:24;4.10;;;2.92;;
71790;SDS011;59638;52.126;5.434;2023-05-10T10:02:54;5.10;;;3.30;;
71790;SDS011;59638;52.126;5.434;2023-05-10T10:05:32;6.38;;;3.45;;
71790;SDS011;59638;52.126;5.434;2023-05-10T10:08:00;3.10;;;2.05;;
71790;SDS011;59638;52.126;5.434;2023-05-10T10:10:29;3.47;;;2.17;;
71790;SDS011;59638;52.126;5.434;2023-05-10T10:12:57;3.95;;;2.60;;
71790;SDS011;59638;52.126;5.434;2023-05-10T10:15:24;4.35;;;2.92;;
71790;SDS011;59638;52.126;5.434;2023-05-10T10:17:51;3.00;;;2.10;;
71790;SDS011;59638;52.126;5.434;2023-05-10T10:20:19;6.63;;;2.90;;
71790;SDS011;59638;52.126;5.434;2023-05-10T10:22:48;4.37;;;3.40;;
71790;SDS011;59638;52.126;5.434;2023-05-10T10:25:16;5.72;;;2.80;;
71790;SDS011;59638;52.126;5.434;2023-05-10T10:30:28;4.82;;;3.22;;
71790;SDS011;59638;52.126;5.434;2023-05-10T10:33:13;5.32;;;3.03;;
71790;SDS011;59638;52.126;5.434;2023-05-10T10:36:03;5.43;;;3.10;;
71790;SDS011;59638;52.126;5.434;2023-05-10T10:38:37;4.25;;;2.58;;
71790;SDS011;59638;52.126;5.434;2023-05-10T10:41:29;4.82;;;3.40;;
71790;SDS011;59638;52.126;5.434;2023-05-10T10:49:38;5.00;;;2.90;;
71790;SDS011;59638;52.126;5.434;2023-05-10T10:52:12;4.28;;;2.60;;
71790;SDS011;59638;52.126;5.434;2023-05-10T10:54:46;8.18;;;3.65;;
71790;SDS011;59638;52.126;5.434;2023-05-10T10:57:17;5.28;;;3.10;;
71790;SDS011;59638;52.126;5.434;2023-05-10T10:59:45;4.13;;;3.13;;
71790;SDS011;59638;52.126;5.434;2023-05-10T11:02:32;4.30;;;2.90;;
71790;SDS011;59638;52.126;5.434;2023-05-10T11:05:22;4.07;;;3.00;;
71790;SDS011;59638;52.126;5.434;2023-05-10T11:07:59;4.88;;;2.80;;
71790;SDS011;59638;52.126;5.434;2023-05-10T11:10:32;3.45;;;3.00;;
71790;SDS011;59638;52.126;5.434;2023-05-10T11:13:08;5.50;;;3.45;;
71790;SDS011;59638;52.126;5.434;2023-05-10T11:15:36;4.77;;;2.80;;
71790;SDS011;59638;52.126;5.434;2023-05-10T11:18:20;4.25;;;3.08;;
71790;SDS011;59638;52.126;5.434;2023-05-10T11:20:50;4.68;;;3.42;;
71790;SDS011;59638;52.126;5.434;2023-05-10T11:23:17;3.55;;;3.05;;
71790;SDS011;59638;52.126;5.434;2023-05-10T11:25:45;5.13;;;2.90;;
71790;SDS011;59638;52.126;5.434;2023-05-10T11:28:12;4.70;;;2.80;;
71790;SDS011;59638;52.126;5.434;2023-05-10T11:30:39;3.63;;;3.10;;
71790;SDS011;59638;52.126;5.434;2023-05-10T11:33:07;4.90;;;3.03;;
71790;SDS011;59638;52.126;5.434;2023-05-10T11:35:38;5.22;;;2.90;;
71790;SDS011;59638;52.126;5.434;2023-05-10T11:38:09;4.05;;;2.95;;
71790;SDS011;59638;52.126;5.434;2023-05-10T11:40:36;3.93;;;2.33;;
71790;SDS011;59638;52.126;5.434;2023-05-10T11:43:04;3.10;;;2.55;;
71790;SDS011;59638;52.126;5.434;2023-05-10T11:45:31;4.78;;;2.95;;
71790;SDS011;59638;52.126;5.434;2023-05-10T11:47:59;5.57;;;2.60;;
71790;SDS011;59638;52.126;5.434;2023-05-10T11:50:26;6.32;;;3.17;;
71790;SDS011;59638;52.126;5.434;2023-05-10T11:52:54;5.47;;;2.03;;
71790;SDS011;59638;52.126;5.434;2023-05-10T11:55:21;3.97;;;2.20;;
71790;SDS011;59638;52.126;5.434;2023-05-10T11:57:51;3.00;;;2.15;;
71790;SDS011;59638;52.126;5.434;2023-05-10T12:00:18;3.30;;;2.38;;
71790;SDS011;59638;52.126;5.434;2023-05-10T12:02:45;5.80;;;2.33;;
71790;SDS011;59638;52.126;5.434;2023-05-10T12:05:11;2.27;;;1.47;;
71790;SDS011;59638;52.126;5.434;2023-05-10T12:07:39;3.35;;;1.77;;
71790;SDS011;59638;52.126;5.434;2023-05-10T12:10:09;3.28;;;2.45;;
71790;SDS011;59638;52.126;5.434;2023-05-10T12:12:41;2.47;;;1.40;;
71790;SDS011;59638;52.126;5.434;2023-05-10T12:15:18;5.28;;;1.77;;
71790;SDS011;59638;52.126;5.434;2023-05-10T12:17:46;3.97;;;1.50;;
71790;SDS011;59638;52.126;5.434;2023-05-10T12:20:15;3.70;;;1.88;;
71790;SDS011;59638;52.126;5.434;2023-05-10T12:22:52;2.80;;;1.13;;
71790;SDS011;59638;52.126;5.434;2023-05-10T12:25:21;4.38;;;1.40;;
71790;SDS011;59638;52.126;5.434;2023-05-10T12:27:55;2.33;;;1.15;;
71790;SDS011;59638;52.126;5.434;2023-05-10T12:30:25;3.63;;;1.17;;
71790;SDS011;59638;52.126;5.434;2023-05-10T12:32:53;1.77;;;1.30;;
71790;SDS011;59638;52.126;5.434;2023-05-10T12:35:20;2.90;;;1.38;;
71790;SDS011;59638;52.126;5.434;2023-05-10T12:37:50;3.25;;;1.33;;
71790;SDS011;59638;52.126;5.434;2023-05-10T12:40:17;3.88;;;1.70;;
71790;SDS011;59638;52.126;5.434;2023-05-10T12:42:44;2.13;;;1.27;;
71790;SDS011;59638;52.126;5.434;2023-05-10T12:45:11;2.58;;;1.45;;
71790;SDS011;59638;52.126;5.434;2023-05-10T12:47:37;2.20;;;1.00;;
71790;SDS011;59638;52.126;5.434;2023-05-10T12:50:07;2.88;;;0.85;;
71790;SDS011;59638;52.126;5.434;2023-05-10T12:52:34;3.78;;;0.98;;
71790;SDS011;59638;52.126;5.434;2023-05-10T12:55:00;5.67;;;1.30;;
71790;SDS011;59638;52.126;5.434;2023-05-10T12:57:27;2.45;;;1.02;;
71790;SDS011;59638;52.126;5.434;2023-05-10T12:59:54;1.63;;;0.88;;
71790;SDS011;59638;52.126;5.434;2023-05-10T13:02:21;2.20;;;0.82;;
71790;SDS011;59638;52.126;5.434;2023-05-10T13:04:49;1.67;;;1.00;;
71790;SDS011;59638;52.126;5.434;2023-05-10T13:07:16;1.50;;;0.70;;
71790;SDS011;59638;52.126;5.434;2023-05-10T13:09:42;1.00;;;0.57;;
71790;SDS011;59638;52.126;5.434;2023-05-10T13:12:09;2.10;;;0.82;;
71790;SDS011;59638;52.126;5.434;2023-05-10T13:14:35;1.50;;;0.60;;
71790;SDS011;59638;52.126;5.434;2023-05-10T13:17:02;1.75;;;0.52;;
71790;SDS011;59638;52.126;5.434;2023-05-10T13:19:28;5.33;;;2.47;;
71790;SDS011;59638;52.126;5.434;2023-05-10T13:21:55;2.40;;;1.98;;
71790;SDS011;59638;52.126;5.434;2023-05-10T13:24:21;4.25;;;2.15;;
71790;SDS011;59638;52.126;5.434;2023-05-10T13:26:48;3.97;;;2.28;;
71790;SDS011;59638;52.126;5.434;2023-05-10T13:29:14;3.17;;;2.40;;
71790;SDS011;59638;52.126;5.434;2023-05-10T13:31:43;6.53;;;2.80;;
71790;SDS011;59638;52.126;5.434;2023-05-10T13:34:09;4.38;;;2.65;;
71790;SDS011;59638;52.126;5.434;2023-05-10T13:36:36;3.95;;;2.40;;
71790;SDS011;59638;52.126;5.434;2023-05-10T13:39:02;6.32;;;3.08;;
71790;SDS011;59638;52.126;5.434;2023-05-10T13:41:31;4.70;;;1.88;;
71790;SDS011;59638;52.126;5.434;2023-05-10T13:43:57;5.57;;;2.53;;
71790;SDS011;59638;52.126;5.434;2023-05-10T13:46:24;4.30;;;2.33;;
71790;SDS011;59638;52.126;5.434;2023-05-10T13:48:50;6.22;;;1.90;;
71790;SDS011;59638;52.126;5.434;2023-05-10T13:51:16;4.13;;;1.92;;
71790;SDS011;59638;52.126;5.434;2023-05-10T13:53:43;4.50;;;2.17;;
71790;SDS011;59638;52.126;5.434;2023-05-10T13:56:09;5.93;;;2.70;;
71790;SDS011;59638;52.126;5.434;2023-05-10T13:58:36;3.08;;;1.98;;
71790;SDS011;59638;52.126;5.434;2023-05-10T14:01:02;4.00;;;2.42;;
71790;SDS011;59638;52.126;5.434;2023-05-10T14:03:28;3.58;;;1.25;;
71790;SDS011;59638;52.126;5.434;2023-05-10T14:05:55;8.13;;;2.78;;
71790;SDS011;59638;52.126;5.434;2023-05-10T14:08:21;3.70;;;2.77;;
71790;SDS011;59638;52.126;5.434;2023-05-10T14:10:48;7.03;;;2.70;;
71790;SDS011;59638;52.126;5.434;2023-05-10T14:13:15;2.80;;;2.17;;
71790;SDS011;59638;52.126;5.434;2023-05-10T14:15:41;3.63;;;2.58;;
71790;SDS011;59638;52.126;5.434;2023-05-10T14:18:07;5.00;;;3.28;;
71790;SDS011;59638;52.126;5.434;2023-05-10T14:20:34;4.77;;;2.37;;
71790;SDS011;59638;52.126;5.434;2023-05-10T14:23:00;5.75;;;2.55;;
71790;SDS011;59638;52.126;5.434;2023-05-10T14:25:27;3.38;;;2.92;;
71790;SDS011;59638;52.126;5.434;2023-05-10T14:27:54;4.68;;;2.78;;
71790;SDS011;59638;52.126;5.434;2023-05-10T14:30:20;4.97;;;3.58;;
71790;SDS011;59638;52.126;5.434;2023-05-10T14:32:47;6.40;;;3.30;;
71790;SDS011;59638;52.126;5.434;2023-05-10T14:35:13;8.20;;;4.15;;
71790;SDS011;59638;52.126;5.434;2023-05-10T14:37:43;4.90;;;3.97;;
71790;SDS011;59638;52.126;5.434;2023-05-10T14:40:10;5.60;;;3.08;;
71790;SDS011;59638;52.126;5.434;2023-05-10T14:42:36;6.03;;;3.72;;
71790;SDS011;59638;52.126;5.434;2023-05-10T14:45:03;7.33;;;3.43;;
71790;SDS011;59638;52.126;5.434;2023-05-10T14:47:30;4.70;;;2.75;;
71790;SDS011;59638;52.126;5.434;2023-05-10T14:49:56;5.85;;;4.15;;
71790;SDS011;59638;52.126;5.434;2023-05-10T14:52:24;8.07;;;4.15;;
71790;SDS011;59638;52.126;5.434;2023-05-10T14:54:50;6.07;;;3.72;;
71790;SDS011;59638;52.126;5.434;2023-05-10T14:57:17;8.00;;;3.93;;
71790;SDS011;59638;52.126;5.434;2023-05-10T14:59:43;10.50;;;4.15;;
71790;SDS011;59638;52.126;5.434;2023-05-10T15:02:10;7.03;;;4.63;;
71790;SDS011;59638;52.126;5.434;2023-05-10T15:04:37;7.57;;;4.25;;
71790;SDS011;59638;52.126;5.434;2023-05-10T15:07:04;8.23;;;4.38;;
71790;SDS011;59638;52.126;5.434;2023-05-10T15:09:30;7.87;;;4.13;;
71790;SDS011;59638;52.126;5.434;2023-05-10T15:11:57;10.52;;;4.82;;